createdAt,value
2018-03-26T00:00:23.612Z,65.37
2018-03-26T00:02:51.380Z,71.80
2018-03-26T00:05:18.846Z,76.30
2018-03-26T00:07:47.216Z,87.82
2018-03-26T00:10:14.984Z,83.07
2018-03-26T00:12:42.743Z,70.53
2018-03-26T00:15:10.212Z,80.22
2018-03-26T00:17:37.674Z,66.07
2018-03-26T00:20:05.436Z,90.62
2018-03-26T00:22:33.204Z,84.80
2018-03-26T00:25:00.956Z,92.43
2018-03-26T00:27:28.416Z,75.37
2018-03-26T00:29:56.105Z,82.22
2018-03-26T00:32:23.644Z,79.37
2018-03-26T00:34:51.380Z,76.72
2018-03-26T00:37:18.871Z,75.18
2018-03-26T00:39:46.336Z,96.25
2018-03-26T00:42:14.700Z,89.00
2018-03-26T00:44:42.164Z,89.68
2018-03-26T00:47:09.932Z,59.08
2018-03-26T00:49:37.693Z,64.53
2018-03-26T00:52:05.151Z,58.10
2018-03-26T00:54:32.820Z,79.82
2018-03-26T00:57:00.308Z,69.32
2018-03-26T00:59:27.751Z,70.05
2018-03-26T01:01:55.225Z,68.75
2018-03-26T01:04:22.744Z,89.18
2018-03-26T01:06:50.207Z,77.55
2018-03-26T01:09:17.744Z,84.32
2018-03-26T01:11:45.169Z,80.18
2018-03-26T01:14:12.880Z,54.80
2018-03-26T01:16:41.860Z,59.67
2018-03-26T01:19:09.341Z,78.03
2018-03-26T01:21:37.105Z,61.75
2018-03-26T01:24:04.867Z,77.50
2018-03-26T01:26:32.318Z,71.43
2018-03-26T01:29:00.016Z,61.63
2018-03-26T01:31:27.479Z,67.78
2018-03-26T01:33:55.010Z,70.87
2018-03-26T01:36:22.766Z,63.63
2018-03-26T01:38:50.240Z,58.95
2018-03-26T01:41:17.999Z,56.22
2018-03-26T01:43:45.455Z,48.03
2018-03-26T01:46:13.028Z,50.30
2018-03-26T01:48:41.292Z,64.15
2018-03-26T01:51:09.056Z,60.28
2018-03-26T01:53:36.737Z,57.70
2018-03-26T01:56:04.199Z,59.38
2018-03-26T01:58:31.661Z,51.78
2018-03-26T02:00:59.124Z,47.72
2018-03-26T02:03:26.667Z,52.03
2018-03-26T02:05:54.135Z,53.75
2018-03-26T02:08:21.875Z,44.15
2018-03-26T02:10:49.556Z,59.05
2018-03-26T02:13:17.011Z,52.78
2018-03-26T02:15:45.247Z,51.20
2018-03-26T02:18:12.712Z,47.97
2018-03-26T02:20:40.392Z,42.05
2018-03-26T02:23:07.859Z,43.30
2018-03-26T02:25:35.624Z,47.97
2018-03-26T02:28:03.290Z,44.20
2018-03-26T02:30:30.755Z,62.80
2018-03-26T02:32:58.221Z,40.10
2018-03-26T02:35:25.678Z,43.58
2018-03-26T02:37:53.162Z,46.63
2018-03-26T02:40:20.669Z,53.40
2018-03-26T02:42:48.432Z,37.10
2018-03-26T02:45:16.112Z,45.80
2018-03-26T02:47:43.664Z,40.15
2018-03-26T02:50:11.123Z,51.17
2018-03-26T02:52:38.881Z,62.10
2018-03-26T02:55:06.366Z,46.05
2018-03-26T02:57:34.016Z,45.22
2018-03-26T03:00:01.559Z,46.63
2018-03-26T03:02:29.023Z,51.78
2018-03-26T03:04:56.693Z,46.17
2018-03-26T03:07:24.961Z,53.65
2018-03-26T03:09:52.625Z,43.03
2018-03-26T03:12:20.384Z,52.80
2018-03-26T03:14:48.148Z,69.30
2018-03-26T03:17:15.607Z,47.95
2018-03-26T03:19:43.372Z,47.50
2018-03-26T03:22:11.056Z,59.28
2018-03-26T03:24:38.515Z,50.25
2018-03-26T03:27:05.976Z,45.47
2018-03-26T03:29:33.437Z,58.03
2018-03-26T03:32:00.908Z,53.47
2018-03-26T03:34:28.376Z,75.80
2018-03-26T03:36:55.844Z,55.30
2018-03-26T03:39:23.343Z,61.30
2018-03-26T03:41:50.808Z,59.22
2018-03-26T03:44:18.488Z,57.25
2018-03-26T03:46:46.009Z,71.00
2018-03-26T03:49:13.483Z,51.90
2018-03-26T03:51:40.942Z,47.38
2018-03-26T03:54:08.416Z,68.03
2018-03-26T03:56:36.174Z,50.33
2018-03-26T03:59:03.938Z,63.15
2018-03-26T04:01:31.387Z,61.45
2018-03-26T04:03:59.064Z,58.47
2018-03-26T04:06:26.620Z,51.45
2018-03-26T04:08:54.377Z,53.00
2018-03-26T04:11:21.833Z,51.10
2018-03-26T04:13:49.300Z,61.40
2018-03-26T04:16:17.190Z,57.70
2018-03-26T04:18:45.419Z,70.50
2018-03-26T04:21:12.876Z,61.90
2018-03-26T04:23:40.331Z,64.00
2018-03-26T04:26:07.801Z,58.22
2018-03-26T04:28:35.256Z,55.72
2018-03-26T04:31:02.724Z,53.85
2018-03-26T04:33:30.491Z,59.28
2018-03-26T04:35:57.955Z,49.90
2018-03-26T04:38:25.713Z,75.65
2018-03-26T04:40:53.399Z,56.72
2018-03-26T04:43:20.883Z,57.33
2018-03-26T04:45:48.404Z,68.95
2018-03-26T04:48:15.977Z,54.33
2018-03-26T04:50:44.213Z,57.60
2018-03-26T04:53:11.692Z,68.65
2018-03-26T04:55:39.158Z,71.37
2018-03-26T04:58:06.619Z,67.57
2018-03-26T05:00:34.101Z,70.12
2018-03-26T05:03:01.753Z,66.43
2018-03-26T05:05:29.211Z,65.95
2018-03-26T05:07:56.675Z,70.35
2018-03-26T05:10:24.203Z,60.45
2018-03-26T05:12:51.667Z,65.03
2018-03-26T05:15:19.424Z,68.95
2018-03-26T05:17:46.888Z,62.20
2018-03-26T05:20:14.387Z,75.30
2018-03-26T05:22:42.082Z,66.72
2018-03-26T05:25:09.563Z,88.43
2018-03-26T05:27:37.031Z,73.75
2018-03-26T05:30:04.792Z,75.95
2018-03-26T05:32:32.252Z,75.18
2018-03-26T05:34:59.949Z,83.05
2018-03-26T05:37:27.476Z,67.30
2018-03-26T05:39:54.926Z,73.97
2018-03-26T05:42:22.692Z,75.82
2018-03-26T05:44:50.386Z,74.25
2018-03-26T05:47:17.844Z,78.53
2018-03-26T05:49:45.307Z,79.53
2018-03-26T05:52:12.833Z,90.60
2018-03-26T05:54:40.244Z,77.70
2018-03-26T05:57:07.765Z,71.00
2018-03-26T05:59:35.516Z,74.90
2018-03-26T06:02:03.332Z,90.43
2018-03-26T06:04:30.755Z,75.97
2018-03-26T06:06:58.275Z,81.63
2018-03-26T06:09:25.957Z,68.62
2018-03-26T06:11:53.460Z,69.22
2018-03-26T06:14:21.097Z,64.40
2018-03-26T06:17:00.492Z,80.28
2018-03-26T06:19:27.961Z,73.03
2018-03-26T06:21:55.455Z,64.25
2018-03-26T06:24:22.911Z,68.68
2018-03-26T06:26:50.375Z,71.05
2018-03-26T06:29:17.851Z,62.30
2018-03-26T06:31:45.417Z,71.12
2018-03-26T06:34:12.873Z,93.68
2018-03-26T06:36:46.000Z,66.40
2018-03-26T06:39:26.292Z,64.47
2018-03-26T06:41:54.564Z,59.58
2018-03-26T06:44:22.324Z,66.90
2018-03-26T06:46:50.008Z,68.82
2018-03-26T06:49:17.465Z,65.72
2018-03-26T06:51:44.931Z,67.25
2018-03-26T06:54:12.612Z,61.47
2018-03-26T06:56:40.230Z,60.40
2018-03-26T06:59:07.701Z,45.80
2018-03-26T07:01:35.448Z,59.58
2018-03-26T07:04:03.209Z,70.30
2018-03-26T07:06:30.672Z,52.20
2018-03-26T07:08:58.137Z,65.55
2018-03-26T07:11:26.424Z,58.80
2018-03-26T07:13:53.892Z,63.00
2018-03-26T07:16:21.571Z,53.28
2018-03-26T07:18:49.192Z,57.55
2018-03-26T07:21:16.947Z,59.63
2018-03-26T07:23:44.468Z,58.13
2018-03-26T07:26:12.103Z,61.70
2018-03-26T07:28:39.564Z,51.28
2018-03-26T07:31:07.095Z,52.97
2018-03-26T07:33:34.547Z,47.90
2018-03-26T07:36:02.317Z,49.15
2018-03-26T07:38:30.077Z,39.92
2018-03-26T07:40:57.767Z,54.13
2018-03-26T07:43:25.308Z,44.55
2018-03-26T07:45:52.765Z,52.35
2018-03-26T07:48:20.230Z,59.50
2018-03-26T07:50:48.029Z,52.95
2018-03-26T07:53:15.700Z,51.53
2018-03-26T07:55:43.161Z,43.78
2018-03-26T07:58:10.660Z,37.78
2018-03-26T08:00:38.129Z,45.42
2018-03-26T08:03:05.860Z,49.53
2018-03-26T08:05:33.332Z,47.20
2018-03-26T08:08:00.796Z,49.58
2018-03-26T08:10:28.360Z,32.58
2018-03-26T08:12:56.023Z,42.62
2018-03-26T08:15:23.493Z,39.70
2018-03-26T08:17:51.011Z,36.17
2018-03-26T08:20:18.475Z,35.85
2018-03-26T08:22:46.015Z,42.55
2018-03-26T08:25:13.632Z,29.63
2018-03-26T08:27:41.317Z,47.13
2018-03-26T08:30:08.787Z,27.27
2018-03-26T08:32:36.303Z,37.38
2018-03-26T08:35:04.072Z,34.63
2018-03-26T08:37:31.527Z,23.87
2018-03-26T08:39:59.289Z,23.75
2018-03-26T08:42:27.259Z,27.62
2018-03-26T08:44:54.683Z,18.77
2018-03-26T08:47:22.200Z,23.77
2018-03-26T08:49:49.838Z,17.85
2018-03-26T08:52:17.659Z,17.60
2018-03-26T08:54:45.260Z,17.87
2018-03-26T08:57:13.038Z,17.20
2018-03-26T08:59:40.496Z,11.82
2018-03-26T09:02:07.955Z,23.52
2018-03-26T09:04:35.412Z,10.98
2018-03-26T09:07:03.167Z,15.60
2018-03-26T09:09:30.628Z,12.95
2018-03-26T09:11:58.413Z,16.37
2018-03-26T09:14:26.639Z,16.42
2018-03-26T09:16:54.234Z,13.43
2018-03-26T09:19:21.711Z,16.25
2018-03-26T09:21:49.453Z,21.20
2018-03-26T09:24:16.923Z,12.30
2018-03-26T09:26:44.384Z,11.63
2018-03-26T09:29:12.136Z,8.87
2018-03-26T09:31:39.646Z,8.03
2018-03-26T09:34:07.365Z,11.37
2018-03-26T09:36:35.735Z,9.47
2018-03-26T09:39:03.203Z,12.23
2018-03-26T09:41:30.664Z,8.33
2018-03-26T09:43:58.126Z,8.27
2018-03-26T09:46:25.587Z,7.67
2018-03-26T09:48:53.337Z,13.30
2018-03-26T09:51:20.806Z,6.20
2018-03-26T09:53:48.570Z,4.20
2018-03-26T09:56:16.321Z,7.77
2018-03-26T09:58:44.125Z,10.50
2018-03-26T10:01:17.496Z,8.90
2018-03-26T10:03:44.979Z,3.00
2018-03-26T10:06:13.199Z,5.57
2018-03-26T10:08:40.659Z,15.00
2018-03-26T10:11:08.120Z,5.80
2018-03-26T10:13:35.576Z,7.20
2018-03-26T10:16:03.036Z,8.70
2018-03-26T10:18:30.487Z,5.53
2018-03-26T10:20:57.948Z,8.07
2018-03-26T10:23:25.584Z,6.33
2018-03-26T10:25:53.111Z,4.90
2018-03-26T10:28:20.572Z,6.07
2018-03-26T10:30:48.023Z,15.33
2018-03-26T10:33:15.492Z,7.03
2018-03-26T10:35:43.732Z,2.60
2018-03-26T10:38:11.185Z,8.00
2018-03-26T10:40:38.859Z,3.57
2018-03-26T10:43:06.325Z,4.50
2018-03-26T10:45:33.786Z,3.87
2018-03-26T10:48:01.552Z,23.80
2018-03-26T10:50:29.316Z,2.93
2018-03-26T10:52:56.783Z,3.60
2018-03-26T10:55:24.236Z,6.53
2018-03-26T10:57:51.987Z,3.27
2018-03-26T11:00:19.483Z,3.10
2018-03-26T11:02:46.904Z,2.43
2018-03-26T11:05:14.377Z,1.93
2018-03-26T11:07:42.082Z,6.43
2018-03-26T11:10:09.595Z,7.10
2018-03-26T11:12:37.055Z,2.93
2018-03-26T11:15:04.511Z,7.87
2018-03-26T11:17:31.975Z,5.33
2018-03-26T11:19:59.724Z,5.60
2018-03-26T11:22:27.176Z,2.40
2018-03-26T11:24:54.947Z,50.77
2018-03-26T11:27:22.424Z,5.77
2018-03-26T11:29:50.083Z,3.80
2018-03-26T11:32:17.628Z,3.50
2018-03-26T11:34:45.308Z,1.47
2018-03-26T11:37:12.852Z,2.83
2018-03-26T11:39:40.615Z,1.53
2018-03-26T11:42:08.385Z,5.13
2018-03-26T11:44:36.148Z,1.10
2018-03-26T11:47:03.599Z,3.13
2018-03-26T11:49:31.068Z,1.93
2018-03-26T11:51:58.535Z,5.43
2018-03-26T11:54:26.138Z,5.47
2018-03-26T11:56:53.663Z,4.23
2018-03-26T11:59:21.203Z,13.30
2018-03-26T12:01:48.679Z,1.53
2018-03-26T12:04:16.425Z,1.63
2018-03-26T12:06:44.191Z,1.00
2018-03-26T12:09:11.968Z,3.70
2018-03-26T12:11:39.416Z,7.17
2018-03-26T12:14:06.879Z,4.83
2018-03-26T12:16:34.636Z,8.10
2018-03-26T12:19:02.101Z,2.37
2018-03-26T12:21:29.557Z,2.40
2018-03-26T12:24:08.890Z,5.33
2018-03-26T12:26:36.458Z,2.70
2018-03-26T12:29:15.692Z,6.67
2018-03-26T12:31:43.216Z,3.60
2018-03-26T12:34:22.592Z,6.80
2018-03-26T12:36:50.044Z,3.13
2018-03-26T12:39:17.616Z,4.17
2018-03-26T12:41:45.080Z,4.13
2018-03-26T12:47:08.200Z,4.83
2018-03-26T12:49:35.665Z,2.30
2018-03-26T12:52:14.736Z,4.37
2018-03-26T12:54:42.283Z,3.00
2018-03-26T12:57:21.518Z,2.87
2018-03-26T12:59:49.285Z,2.80
2018-03-26T13:02:26.300Z,1.50
2018-03-26T13:04:53.965Z,3.60
2018-03-26T13:07:21.416Z,2.70
2018-03-26T13:09:48.944Z,6.27
2018-03-26T13:12:16.712Z,2.37
2018-03-26T13:14:44.478Z,3.37
2018-03-26T13:17:12.243Z,2.27
2018-03-26T13:19:39.700Z,1.37
2018-03-26T13:22:07.165Z,2.23
2018-03-26T13:24:34.618Z,4.90
2018-03-26T13:27:02.084Z,1.57
2018-03-26T13:29:29.845Z,4.67
2018-03-26T13:31:57.304Z,1.80
2018-03-26T13:34:25.065Z,1.40
2018-03-26T13:36:52.740Z,2.20
2018-03-26T13:39:20.295Z,2.17
2018-03-26T13:41:47.852Z,8.37
2018-03-26T13:44:15.419Z,4.50
2018-03-26T13:46:42.967Z,2.67
2018-03-26T13:49:10.432Z,4.40
2018-03-26T13:51:38.116Z,2.13
2018-03-26T13:54:05.569Z,4.40
2018-03-26T13:56:33.027Z,4.73
2018-03-26T13:59:00.565Z,2.80
2018-03-26T14:01:28.332Z,4.03
2018-03-26T14:03:55.796Z,1.87
2018-03-26T14:06:23.563Z,1.70
2018-03-26T14:09:02.751Z,2.80
2018-03-26T14:11:42.178Z,1.67
2018-03-26T14:14:21.404Z,2.70
2018-03-26T14:17:01.016Z,1.33
2018-03-26T14:19:28.767Z,3.87
2018-03-26T14:21:56.532Z,6.10
2018-03-26T14:24:23.987Z,2.30
2018-03-26T14:26:51.756Z,4.20
2018-03-26T14:29:19.220Z,3.63
2018-03-26T14:31:46.900Z,5.57
2018-03-26T14:34:14.444Z,3.27
2018-03-26T14:36:42.114Z,1.90
2018-03-26T14:39:09.565Z,2.40
2018-03-26T14:41:37.044Z,11.77
2018-03-26T14:44:04.503Z,11.10
2018-03-26T14:46:31.975Z,4.57
2018-03-26T14:48:59.426Z,2.40
2018-03-26T14:51:26.884Z,4.77
2018-03-26T14:53:54.348Z,6.73
2018-03-26T14:56:21.864Z,4.03
2018-03-26T14:58:49.323Z,3.87
2018-03-26T15:01:18.283Z,6.63
2018-03-26T15:03:46.494Z,6.63
2018-03-26T15:06:14.156Z,7.47
2018-03-26T15:08:41.735Z,5.20
2018-03-26T15:11:09.538Z,3.97
2018-03-26T15:13:37.152Z,2.40
2018-03-26T15:16:04.613Z,3.87
2018-03-26T15:18:32.081Z,5.60
2018-03-26T15:20:59.827Z,6.27
2018-03-26T15:23:27.593Z,3.30
2018-03-26T15:25:55.047Z,4.20
2018-03-26T15:28:22.511Z,7.53
2018-03-26T15:30:50.276Z,5.10
2018-03-26T15:33:19.250Z,2.83
2018-03-26T15:35:46.725Z,13.97
2018-03-26T15:38:15.685Z,2.83
2018-03-26T15:40:43.156Z,3.57
2018-03-26T15:43:10.826Z,5.10
2018-03-26T15:45:38.400Z,3.73
2018-03-26T15:48:06.784Z,3.30
2018-03-26T15:50:34.248Z,5.87
2018-03-26T15:53:02.004Z,13.17
2018-03-26T15:55:29.693Z,4.50
2018-03-26T15:57:57.164Z,3.57
2018-03-26T16:00:24.631Z,3.63
2018-03-26T16:02:57.681Z,3.77
2018-03-26T16:05:25.347Z,9.67
2018-03-26T16:07:52.897Z,4.80
2018-03-26T16:10:20.363Z,2.53
2018-03-26T16:12:48.007Z,7.73
2018-03-26T16:15:15.488Z,9.03
2018-03-26T16:17:43.036Z,3.20
2018-03-26T16:20:10.800Z,9.93
2018-03-26T16:22:38.264Z,5.50
2018-03-26T16:25:06.020Z,2.23
2018-03-26T16:27:33.791Z,6.93
2018-03-26T16:30:01.259Z,8.27
2018-03-26T16:32:28.928Z,11.53
2018-03-26T16:34:56.456Z,2.33
2018-03-26T16:37:23.924Z,4.63
2018-03-26T16:39:51.693Z,3.63
2018-03-26T16:42:21.495Z,5.53
2018-03-26T16:44:48.956Z,13.93
2018-03-26T16:47:16.528Z,11.83
2018-03-26T16:49:44.030Z,5.30
2018-03-26T16:52:11.660Z,7.97
2018-03-26T16:54:39.133Z,4.10
2018-03-26T16:57:06.667Z,6.33
2018-03-26T16:59:34.151Z,30.70
2018-03-26T17:02:01.797Z,9.63
2018-03-26T17:04:29.265Z,2.13
2018-03-26T17:06:56.803Z,3.57
2018-03-26T17:09:24.259Z,5.10
2018-03-26T17:11:51.948Z,3.93
2018-03-26T17:14:19.416Z,30.70
2018-03-26T17:16:46.912Z,8.13
2018-03-26T17:19:14.356Z,11.10
2018-03-26T17:21:41.856Z,6.70
2018-03-26T17:24:09.393Z,4.70
2018-03-26T17:26:36.796Z,17.83
2018-03-26T17:29:04.540Z,5.17
2018-03-26T17:31:32.227Z,4.10
2018-03-26T17:33:59.760Z,4.83
2018-03-26T17:36:27.228Z,2.37
2018-03-26T17:38:54.689Z,7.67
2018-03-26T17:41:22.155Z,2.13
2018-03-26T17:43:49.904Z,2.80
2018-03-26T17:46:17.663Z,3.23
2018-03-26T17:48:45.124Z,4.90
2018-03-26T17:51:12.886Z,7.53
2018-03-26T17:53:40.352Z,6.20
2018-03-26T17:56:07.832Z,7.43
2018-03-26T17:58:35.292Z,2.73
2018-03-26T18:01:03.047Z,4.50
2018-03-26T18:03:31.353Z,5.73
2018-03-26T18:05:58.865Z,2.90
2018-03-26T18:08:26.459Z,3.30
2018-03-26T18:10:54.024Z,3.40
2018-03-26T18:13:21.545Z,4.53
2018-03-26T18:15:49.009Z,2.47
2018-03-26T18:18:16.476Z,2.80
2018-03-26T18:20:43.937Z,4.10
2018-03-26T18:23:11.402Z,2.93
2018-03-26T18:25:39.143Z,2.87
2018-03-26T18:28:06.607Z,5.10
2018-03-26T18:30:34.372Z,7.70
2018-03-26T18:33:01.837Z,3.63
2018-03-26T18:35:29.596Z,5.03
2018-03-26T18:37:57.164Z,2.90
2018-03-26T18:40:24.812Z,4.80
2018-03-26T18:42:52.264Z,5.30
2018-03-26T18:45:19.729Z,4.17
2018-03-26T18:47:48.692Z,5.43
2018-03-26T18:50:16.180Z,4.80
2018-03-26T18:52:43.940Z,6.80
2018-03-26T18:55:11.869Z,4.93
2018-03-26T18:57:39.476Z,3.67
2018-03-26T19:00:06.945Z,5.77
2018-03-26T19:02:34.524Z,3.60
2018-03-26T19:05:02.861Z,11.53
2018-03-26T19:07:30.447Z,5.70
2018-03-26T19:09:58.001Z,9.60
2018-03-26T19:12:25.668Z,2.93
2018-03-26T19:14:53.141Z,4.70
2018-03-26T19:17:20.600Z,7.27
2018-03-26T19:19:48.070Z,7.50
2018-03-26T19:22:15.601Z,6.10
2018-03-26T19:24:43.271Z,3.67
2018-03-26T19:27:10.818Z,4.47
2018-03-26T19:29:38.274Z,7.03
2018-03-26T19:32:05.741Z,3.53
2018-03-26T19:34:33.504Z,3.90
2018-03-26T19:37:01.263Z,3.43
2018-03-26T19:39:28.715Z,4.73
2018-03-26T19:41:56.180Z,7.30
2018-03-26T19:44:23.873Z,5.30
2018-03-26T19:46:51.355Z,6.60
2018-03-26T19:49:18.812Z,8.27
2018-03-26T19:51:46.281Z,5.10
2018-03-26T19:54:13.778Z,3.80
2018-03-26T19:56:41.412Z,7.10
2018-03-26T19:59:08.997Z,5.90
2018-03-26T20:01:36.759Z,3.13
2018-03-26T20:04:04.220Z,15.77
2018-03-26T20:06:31.691Z,12.37
2018-03-26T20:08:59.156Z,7.00
2018-03-26T20:11:26.901Z,5.50
2018-03-26T20:13:54.359Z,6.63
2018-03-26T20:16:21.836Z,7.85
2018-03-26T20:18:49.584Z,11.70
2018-03-26T20:21:17.075Z,8.05
2018-03-26T20:23:44.540Z,12.45
2018-03-26T20:26:12.266Z,15.48
2018-03-26T20:28:39.733Z,9.20
2018-03-26T20:31:07.195Z,7.70
2018-03-26T20:33:34.948Z,14.23
2018-03-26T20:36:02.415Z,5.12
2018-03-26T20:38:30.104Z,5.05
2018-03-26T20:40:57.739Z,12.90
2018-03-26T20:43:26.009Z,7.80
2018-03-26T20:45:53.468Z,25.20
2018-03-26T20:48:20.956Z,9.05
2018-03-26T20:50:48.687Z,8.90
2018-03-26T20:53:16.326Z,10.48
2018-03-26T20:55:43.852Z,10.13
2018-03-26T20:58:11.526Z,10.02
2018-03-26T21:00:38.981Z,9.60
2018-03-26T21:03:06.508Z,13.40
2018-03-26T21:05:33.967Z,9.93
2018-03-26T21:08:01.512Z,11.15
2018-03-26T21:10:28.976Z,6.35
2018-03-26T21:12:56.488Z,11.15
2018-03-26T21:15:23.947Z,11.25
2018-03-26T21:17:51.440Z,12.23
2018-03-26T21:20:19.112Z,17.25
2018-03-26T21:22:46.876Z,9.45
2018-03-26T21:25:14.351Z,8.13
2018-03-26T21:27:41.808Z,8.20
2018-03-26T21:30:09.264Z,8.35
2018-03-26T21:32:37.008Z,9.80
2018-03-26T21:35:04.465Z,9.85
2018-03-26T21:37:31.923Z,12.88
2018-03-26T21:39:59.395Z,15.95
2018-03-26T21:42:26.864Z,12.27
2018-03-26T21:44:54.543Z,16.33
2018-03-26T21:47:22.064Z,13.23
2018-03-26T21:49:49.829Z,23.08
2018-03-26T21:52:17.591Z,16.10
2018-03-26T21:54:45.067Z,9.27
2018-03-26T21:57:12.520Z,11.95
2018-03-26T21:59:40.276Z,21.05
2018-03-26T22:02:08.040Z,8.60
2018-03-26T22:04:35.567Z,20.58
2018-03-26T22:07:03.180Z,10.20
2018-03-26T22:09:30.639Z,13.98
2018-03-26T22:11:59.020Z,13.02
2018-03-26T22:14:26.484Z,10.98
2018-03-26T22:16:54.017Z,15.20
2018-03-26T22:19:21.784Z,10.98
2018-03-26T22:21:49.244Z,17.42
2018-03-26T22:24:16.919Z,10.02
2018-03-26T22:26:44.380Z,12.95
2018-03-26T22:29:11.845Z,12.13
2018-03-26T22:31:39.320Z,12.43
2018-03-26T22:34:06.771Z,13.25
2018-03-26T22:36:34.297Z,11.50
2018-03-26T22:39:01.762Z,12.55
2018-03-26T22:41:29.218Z,13.25
2018-03-26T22:43:56.680Z,16.77
2018-03-26T22:46:24.436Z,13.25
2018-03-26T22:48:51.900Z,13.40
2018-03-26T22:51:19.357Z,13.48
2018-03-26T22:53:46.804Z,12.35
2018-03-26T22:56:14.271Z,12.57
2018-03-26T22:58:41.732Z,14.70
2018-03-26T23:01:09.487Z,11.05
2018-03-26T23:03:36.944Z,10.77
2018-03-26T23:06:04.707Z,8.05
2018-03-26T23:08:32.163Z,10.68
2018-03-26T23:10:59.615Z,16.52
2018-03-26T23:13:27.076Z,14.82
2018-03-26T23:15:54.532Z,19.73
2018-03-26T23:18:22.316Z,8.48
2018-03-26T23:20:50.080Z,18.25
2018-03-26T23:23:17.841Z,19.42
2018-03-26T23:25:45.309Z,13.35
2018-03-26T23:28:13.060Z,16.90
2018-03-26T23:30:40.830Z,11.23
2018-03-26T23:33:08.594Z,15.02
2018-03-26T23:35:36.058Z,15.98
2018-03-26T23:38:03.620Z,15.75
2018-03-26T23:40:31.275Z,10.20
2018-03-26T23:42:59.049Z,15.23
2018-03-26T23:45:26.508Z,11.10
2018-03-26T23:47:54.267Z,12.48
2018-03-26T23:50:21.720Z,14.48
2018-03-26T23:52:49.177Z,12.98
2018-03-26T23:55:16.651Z,13.70
2018-03-26T23:57:44.311Z,14.32
